sensor_id;sensor_type;location;lat;lon;timestamp;P1;durP1;ratioP1;P2;durP2;ratioP2
10987;SDS011;5547;42.672;23.230;2023-08-07T00:02:16;2.60;;;2.40;;
10987;SDS011;5547;42.672;23.230;2023-08-07T00:05:16;2.80;;;2.27;;
10987;SDS011;5547;42.672;23.230;2023-08-07T00:08:17;2.63;;;2.10;;
10987;SDS011;5547;42.672;23.230;2023-08-07T00:11:17;3.13;;;2.30;;
10987;SDS011;5547;42.672;23.230;2023-08-07T00:14:18;2.53;;;2.33;;
10987;SDS011;5547;42.672;23.230;2023-08-07T00:17:18;2.50;;;2.13;;
10987;SDS011;5547;42.672;23.230;2023-08-07T00:20:18;2.60;;;1.97;;
10987;SDS011;5547;42.672;23.230;2023-08-07T00:23:19;2.60;;;2.17;;
10987;SDS011;5547;42.672;23.230;2023-08-07T00:26:19;2.90;;;2.40;;
10987;SDS011;5547;42.672;23.230;2023-08-07T00:29:19;2.50;;;2.10;;
10987;SDS011;5547;42.672;23.230;2023-08-07T00:32:20;2.70;;;2.20;;
10987;SDS011;5547;42.672;23.230;2023-08-07T00:35:20;2.53;;;2.20;;
10987;SDS011;5547;42.672;23.230;2023-08-07T00:38:21;3.00;;;2.20;;
10987;SDS011;5547;42.672;23.230;2023-08-07T00:41:21;3.20;;;2.45;;
10987;SDS011;5547;42.672;23.230;2023-08-07T00:44:22;2.83;;;2.53;;
10987;SDS011;5547;42.672;23.230;2023-08-07T00:47:23;3.03;;;2.58;;
10987;SDS011;5547;42.672;23.230;2023-08-07T00:50:24;3.33;;;2.53;;
10987;SDS011;5547;42.672;23.230;2023-08-07T00:53:25;3.35;;;2.67;;
10987;SDS011;5547;42.672;23.230;2023-08-07T00:56:26;3.40;;;2.53;;
10987;SDS011;5547;42.672;23.230;2023-08-07T00:59:27;2.97;;;2.50;;
10987;SDS011;5547;42.672;23.230;2023-08-07T01:02:27;2.90;;;2.53;;
10987;SDS011;5547;42.672;23.230;2023-08-07T01:05:28;3.25;;;2.72;;
10987;SDS011;5547;42.672;23.230;2023-08-07T01:08:29;2.83;;;2.55;;
10987;SDS011;5547;42.672;23.230;2023-08-07T01:18:02;3.60;;;2.78;;
10987;SDS011;5547;42.672;23.230;2023-08-07T01:21:04;3.20;;;2.70;;
10987;SDS011;5547;42.672;23.230;2023-08-07T01:24:04;3.00;;;2.40;;
10987;SDS011;5547;42.672;23.230;2023-08-07T01:30:19;3.00;;;2.67;;
10987;SDS011;5547;42.672;23.230;2023-08-07T01:33:27;3.07;;;2.60;;
10987;SDS011;5547;42.672;23.230;2023-08-07T01:36:32;3.58;;;2.67;;
10987;SDS011;5547;42.672;23.230;2023-08-07T01:39:33;3.08;;;2.78;;
10987;SDS011;5547;42.672;23.230;2023-08-07T01:42:35;3.37;;;3.07;;
10987;SDS011;5547;42.672;23.230;2023-08-07T01:45:36;3.30;;;3.00;;
10987;SDS011;5547;42.672;23.230;2023-08-07T01:48:37;3.10;;;2.80;;
10987;SDS011;5547;42.672;23.230;2023-08-07T01:51:37;3.40;;;2.83;;
10987;SDS011;5547;42.672;23.230;2023-08-07T01:54:38;3.88;;;3.40;;
10987;SDS011;5547;42.672;23.230;2023-08-07T01:57:38;4.47;;;3.03;;
10987;SDS011;5547;42.672;23.230;2023-08-07T02:00:38;3.53;;;3.00;;
10987;SDS011;5547;42.672;23.230;2023-08-07T02:03:39;3.43;;;2.93;;
10987;SDS011;5547;42.672;23.230;2023-08-07T02:06:40;4.18;;;3.55;;
10987;SDS011;5547;42.672;23.230;2023-08-07T02:09:40;4.47;;;3.50;;
10987;SDS011;5547;42.672;23.230;2023-08-07T02:12:41;3.80;;;3.40;;
10987;SDS011;5547;42.672;23.230;2023-08-07T02:15:41;4.20;;;3.50;;
10987;SDS011;5547;42.672;23.230;2023-08-07T02:18:42;5.73;;;3.53;;
10987;SDS011;5547;42.672;23.230;2023-08-07T02:21:42;5.97;;;3.77;;
10987;SDS011;5547;42.672;23.230;2023-08-07T02:24:42;3.87;;;3.43;;
10987;SDS011;5547;42.672;23.230;2023-08-07T02:27:43;4.93;;;3.70;;
10987;SDS011;5547;42.672;23.230;2023-08-07T02:30:45;4.73;;;3.77;;
10987;SDS011;5547;42.672;23.230;2023-08-07T02:33:48;3.90;;;3.38;;
10987;SDS011;5547;42.672;23.230;2023-08-07T02:36:49;4.07;;;3.60;;
10987;SDS011;5547;42.672;23.230;2023-08-07T02:39:49;4.53;;;3.70;;
10987;SDS011;5547;42.672;23.230;2023-08-07T02:42:50;4.40;;;3.80;;
10987;SDS011;5547;42.672;23.230;2023-08-07T02:45:50;5.50;;;4.30;;
10987;SDS011;5547;42.672;23.230;2023-08-07T02:48:50;4.60;;;4.10;;
10987;SDS011;5547;42.672;23.230;2023-08-07T02:51:51;5.33;;;3.97;;
10987;SDS011;5547;42.672;23.230;2023-08-07T02:54:51;4.53;;;4.13;;
10987;SDS011;5547;42.672;23.230;2023-08-07T02:57:51;5.17;;;4.67;;
10987;SDS011;5547;42.672;23.230;2023-08-07T03:00:52;5.17;;;4.53;;
10987;SDS011;5547;42.672;23.230;2023-08-07T03:03:52;6.30;;;4.90;;
10987;SDS011;5547;42.672;23.230;2023-08-07T03:06:53;5.40;;;4.83;;
10987;SDS011;5547;42.672;23.230;2023-08-07T03:09:53;5.60;;;4.70;;
10987;SDS011;5547;42.672;23.230;2023-08-07T03:12:53;5.13;;;4.63;;
10987;SDS011;5547;42.672;23.230;2023-08-07T03:16:04;5.00;;;4.50;;
10987;SDS011;5547;42.672;23.230;2023-08-07T03:19:06;5.70;;;4.90;;
10987;SDS011;5547;42.672;23.230;2023-08-07T03:22:06;5.30;;;4.60;;
10987;SDS011;5547;42.672;23.230;2023-08-07T03:25:06;5.47;;;4.53;;
10987;SDS011;5547;42.672;23.230;2023-08-07T03:28:07;5.25;;;4.43;;
10987;SDS011;5547;42.672;23.230;2023-08-07T03:31:07;5.50;;;4.40;;
10987;SDS011;5547;42.672;23.230;2023-08-07T03:34:08;4.77;;;4.17;;
10987;SDS011;5547;42.672;23.230;2023-08-07T03:37:08;4.30;;;3.90;;
10987;SDS011;5547;42.672;23.230;2023-08-07T03:40:09;4.45;;;4.05;;
10987;SDS011;5547;42.672;23.230;2023-08-07T03:43:09;4.87;;;4.13;;
10987;SDS011;5547;42.672;23.230;2023-08-07T03:46:10;4.38;;;3.97;;
10987;SDS011;5547;42.672;23.230;2023-08-07T03:49:11;3.90;;;3.50;;
10987;SDS011;5547;42.672;23.230;2023-08-07T03:52:11;4.03;;;3.63;;
10987;SDS011;5547;42.672;23.230;2023-08-07T03:55:12;4.10;;;3.70;;
10987;SDS011;5547;42.672;23.230;2023-08-07T03:58:12;4.40;;;4.00;;
10987;SDS011;5547;42.672;23.230;2023-08-07T04:01:12;4.27;;;3.70;;
10987;SDS011;5547;42.672;23.230;2023-08-07T04:04:13;3.90;;;3.47;;
10987;SDS011;5547;42.672;23.230;2023-08-07T04:07:13;3.97;;;3.40;;
10987;SDS011;5547;42.672;23.230;2023-08-07T04:10:13;4.25;;;3.60;;
10987;SDS011;5547;42.672;23.230;2023-08-07T04:13:14;4.07;;;3.27;;
10987;SDS011;5547;42.672;23.230;2023-08-07T04:16:14;4.40;;;3.50;;
10987;SDS011;5547;42.672;23.230;2023-08-07T04:19:15;3.58;;;3.00;;
10987;SDS011;5547;42.672;23.230;2023-08-07T04:22:15;3.60;;;3.30;;
10987;SDS011;5547;42.672;23.230;2023-08-07T04:25:16;3.97;;;3.20;;
10987;SDS011;5547;42.672;23.230;2023-08-07T04:28:16;3.30;;;3.00;;
10987;SDS011;5547;42.672;23.230;2023-08-07T04:31:17;3.33;;;3.03;;
10987;SDS011;5547;42.672;23.230;2023-08-07T04:34:17;4.27;;;3.30;;
10987;SDS011;5547;42.672;23.230;2023-08-07T04:37:17;3.83;;;3.43;;
10987;SDS011;5547;42.672;23.230;2023-08-07T04:40:18;3.63;;;2.97;;
10987;SDS011;5547;42.672;23.230;2023-08-07T04:43:18;3.20;;;2.90;;
10987;SDS011;5547;42.672;23.230;2023-08-07T04:46:22;3.60;;;2.85;;
10987;SDS011;5547;42.672;23.230;2023-08-07T04:49:22;3.83;;;2.90;;
10987;SDS011;5547;42.672;23.230;2023-08-07T04:52:23;3.03;;;2.73;;
10987;SDS011;5547;42.672;23.230;2023-08-07T04:55:23;3.20;;;2.90;;
10987;SDS011;5547;42.672;23.230;2023-08-07T04:58:24;3.00;;;2.78;;
10987;SDS011;5547;42.672;23.230;2023-08-07T05:01:24;4.17;;;3.00;;
10987;SDS011;5547;42.672;23.230;2023-08-07T05:04:24;3.33;;;3.03;;
10987;SDS011;5547;42.672;23.230;2023-08-07T05:07:25;3.17;;;2.83;;
10987;SDS011;5547;42.672;23.230;2023-08-07T05:10:25;3.55;;;3.25;;
10987;SDS011;5547;42.672;23.230;2023-08-07T05:13:26;3.67;;;3.03;;
10987;SDS011;5547;42.672;23.230;2023-08-07T05:16:26;3.70;;;2.63;;
10987;SDS011;5547;42.672;23.230;2023-08-07T05:19:26;3.60;;;2.90;;
10987;SDS011;5547;42.672;23.230;2023-08-07T05:22:27;3.33;;;2.80;;
10987;SDS011;5547;42.672;23.230;2023-08-07T05:25:27;3.27;;;2.97;;
10987;SDS011;5547;42.672;23.230;2023-08-07T05:28:28;2.80;;;2.50;;
10987;SDS011;5547;42.672;23.230;2023-08-07T05:31:28;3.50;;;2.70;;
10987;SDS011;5547;42.672;23.230;2023-08-07T05:34:29;2.73;;;2.47;;
10987;SDS011;5547;42.672;23.230;2023-08-07T05:37:29;3.05;;;2.75;;
10987;SDS011;5547;42.672;23.230;2023-08-07T05:40:31;3.00;;;2.67;;
10987;SDS011;5547;42.672;23.230;2023-08-07T05:43:32;3.20;;;2.90;;
10987;SDS011;5547;42.672;23.230;2023-08-07T05:46:32;4.40;;;2.85;;
10987;SDS011;5547;42.672;23.230;2023-08-07T05:49:32;3.43;;;3.03;;
10987;SDS011;5547;42.672;23.230;2023-08-07T05:52:33;3.90;;;2.70;;
10987;SDS011;5547;42.672;23.230;2023-08-07T05:55:34;3.13;;;2.80;;
10987;SDS011;5547;42.672;23.230;2023-08-07T05:58:34;3.30;;;2.80;;
10987;SDS011;5547;42.672;23.230;2023-08-07T06:01:35;3.30;;;3.00;;
10987;SDS011;5547;42.672;23.230;2023-08-07T06:04:37;3.15;;;2.85;;
10987;SDS011;5547;42.672;23.230;2023-08-07T06:07:37;3.50;;;3.20;;
10987;SDS011;5547;42.672;23.230;2023-08-07T06:10:38;2.83;;;2.53;;
10987;SDS011;5547;42.672;23.230;2023-08-07T06:13:39;3.40;;;3.10;;
10987;SDS011;5547;42.672;23.230;2023-08-07T06:16:40;2.97;;;2.65;;
10987;SDS011;5547;42.672;23.230;2023-08-07T06:19:40;3.03;;;2.60;;
10987;SDS011;5547;42.672;23.230;2023-08-07T06:22:41;3.13;;;2.77;;
10987;SDS011;5547;42.672;23.230;2023-08-07T06:25:41;2.80;;;2.50;;
10987;SDS011;5547;42.672;23.230;2023-08-07T06:28:43;3.10;;;2.80;;
10987;SDS011;5547;42.672;23.230;2023-08-07T06:31:43;2.33;;;2.13;;
10987;SDS011;5547;42.672;23.230;2023-08-07T06:34:43;1.95;;;1.30;;
10987;SDS011;5547;42.672;23.230;2023-08-07T06:37:44;1.98;;;1.52;;
10987;SDS011;5547;42.672;23.230;2023-08-07T06:40:44;1.63;;;1.10;;
10987;SDS011;5547;42.672;23.230;2023-08-07T06:43:45;1.70;;;1.30;;
10987;SDS011;5547;42.672;23.230;2023-08-07T06:46:45;1.60;;;1.20;;
10987;SDS011;5547;42.672;23.230;2023-08-07T06:49:46;1.40;;;1.10;;
10987;SDS011;5547;42.672;23.230;2023-08-07T06:52:46;1.73;;;1.43;;
10987;SDS011;5547;42.672;23.230;2023-08-07T06:55:47;1.73;;;1.50;;
10987;SDS011;5547;42.672;23.230;2023-08-07T06:58:47;1.90;;;1.60;;
10987;SDS011;5547;42.672;23.230;2023-08-07T07:01:47;1.70;;;1.40;;
10987;SDS011;5547;42.672;23.230;2023-08-07T07:04:48;1.75;;;1.65;;
10987;SDS011;5547;42.672;23.230;2023-08-07T07:07:48;2.40;;;1.93;;
10987;SDS011;5547;42.672;23.230;2023-08-07T07:10:49;2.20;;;1.60;;
10987;SDS011;5547;42.672;23.230;2023-08-07T07:13:49;2.40;;;1.40;;
10987;SDS011;5547;42.672;23.230;2023-08-07T07:16:51;2.05;;;1.63;;
10987;SDS011;5547;42.672;23.230;2023-08-07T07:19:51;1.60;;;1.30;;
10987;SDS011;5547;42.672;23.230;2023-08-07T07:22:51;1.40;;;1.17;;
10987;SDS011;5547;42.672;23.230;2023-08-07T07:25:52;1.50;;;1.10;;
10987;SDS011;5547;42.672;23.230;2023-08-07T07:28:52;1.40;;;1.10;;
10987;SDS011;5547;42.672;23.230;2023-08-07T07:31:53;1.50;;;1.13;;
10987;SDS011;5547;42.672;23.230;2023-08-07T07:34:54;1.40;;;1.20;;
10987;SDS011;5547;42.672;23.230;2023-08-07T07:37:55;1.13;;;1.00;;
10987;SDS011;5547;42.672;23.230;2023-08-07T07:40:55;1.67;;;1.00;;
10987;SDS011;5547;42.672;23.230;2023-08-07T07:43:56;1.10;;;0.90;;
10987;SDS011;5547;42.672;23.230;2023-08-07T07:46:57;1.00;;;0.90;;
10987;SDS011;5547;42.672;23.230;2023-08-07T07:50:04;2.40;;;1.20;;
10987;SDS011;5547;42.672;23.230;2023-08-07T07:53:07;2.42;;;1.25;;
10987;SDS011;5547;42.672;23.230;2023-08-07T07:56:07;1.30;;;1.10;;
10987;SDS011;5547;42.672;23.230;2023-08-07T07:59:08;1.77;;;1.27;;
10987;SDS011;5547;42.672;23.230;2023-08-07T08:02:08;1.30;;;1.07;;
10987;SDS011;5547;42.672;23.230;2023-08-07T08:05:09;2.70;;;1.20;;
10987;SDS011;5547;42.672;23.230;2023-08-07T08:08:13;1.90;;;1.17;;
10987;SDS011;5547;42.672;23.230;2023-08-07T08:11:13;1.50;;;1.20;;
10987;SDS011;5547;42.672;23.230;2023-08-07T08:14:14;1.43;;;1.10;;
10987;SDS011;5547;42.672;23.230;2023-08-07T08:17:14;1.63;;;1.20;;
10987;SDS011;5547;42.672;23.230;2023-08-07T08:20:14;1.43;;;1.13;;
10987;SDS011;5547;42.672;23.230;2023-08-07T08:23:19;2.00;;;1.50;;
10987;SDS011;5547;42.672;23.230;2023-08-07T08:26:19;1.70;;;1.30;;
10987;SDS011;5547;42.672;23.230;2023-08-07T08:29:19;1.43;;;1.30;;
10987;SDS011;5547;42.672;23.230;2023-08-07T08:32:20;2.03;;;1.40;;
10987;SDS011;5547;42.672;23.230;2023-08-07T08:35:20;1.93;;;1.40;;
10987;SDS011;5547;42.672;23.230;2023-08-07T08:38:21;1.33;;;1.10;;
10987;SDS011;5547;42.672;23.230;2023-08-07T08:41:21;1.70;;;1.30;;
10987;SDS011;5547;42.672;23.230;2023-08-07T08:44:23;2.30;;;1.48;;
10987;SDS011;5547;42.672;23.230;2023-08-07T08:47:25;1.93;;;1.53;;
10987;SDS011;5547;42.672;23.230;2023-08-07T08:50:26;1.70;;;1.30;;
10987;SDS011;5547;42.672;23.230;2023-08-07T08:53:28;2.00;;;1.40;;
10987;SDS011;5547;42.672;23.230;2023-08-07T08:56:30;1.95;;;1.10;;
10987;SDS011;5547;42.672;23.230;2023-08-07T08:59:31;1.88;;;1.25;;
10987;SDS011;5547;42.672;23.230;2023-08-07T09:02:33;1.50;;;1.20;;
10987;SDS011;5547;42.672;23.230;2023-08-07T09:05:34;2.00;;;1.30;;
10987;SDS011;5547;42.672;23.230;2023-08-07T09:08:36;1.77;;;1.20;;
10987;SDS011;5547;42.672;23.230;2023-08-07T09:11:41;1.50;;;1.30;;
10987;SDS011;5547;42.672;23.230;2023-08-07T09:14:42;1.50;;;1.20;;
10987;SDS011;5547;42.672;23.230;2023-08-07T09:17:44;1.87;;;1.50;;
10987;SDS011;5547;42.672;23.230;2023-08-07T09:20:46;1.70;;;1.30;;
10987;SDS011;5547;42.672;23.230;2023-08-07T09:23:47;2.17;;;1.58;;
10987;SDS011;5547;42.672;23.230;2023-08-07T09:26:48;1.77;;;1.33;;
10987;SDS011;5547;42.672;23.230;2023-08-07T09:29:51;2.20;;;1.30;;
10987;SDS011;5547;42.672;23.230;2023-08-07T09:32:51;1.48;;;1.20;;
10987;SDS011;5547;42.672;23.230;2023-08-07T09:35:52;1.83;;;1.50;;
10987;SDS011;5547;42.672;23.230;2023-08-07T09:38:53;1.67;;;1.35;;
10987;SDS011;5547;42.672;23.230;2023-08-07T09:41:53;1.70;;;1.40;;
10987;SDS011;5547;42.672;23.230;2023-08-07T09:44:54;1.47;;;1.10;;
10987;SDS011;5547;42.672;23.230;2023-08-07T09:50:58;2.10;;;1.20;;
10987;SDS011;5547;42.672;23.230;2023-08-07T09:54:02;1.40;;;1.27;;
10987;SDS011;5547;42.672;23.230;2023-08-07T09:57:03;1.80;;;1.35;;
10987;SDS011;5547;42.672;23.230;2023-08-07T10:00:07;1.83;;;1.25;;
10987;SDS011;5547;42.672;23.230;2023-08-07T10:03:12;2.17;;;1.30;;
10987;SDS011;5547;42.672;23.230;2023-08-07T10:06:13;2.27;;;1.40;;
10987;SDS011;5547;42.672;23.230;2023-08-07T10:09:14;1.50;;;1.27;;
10987;SDS011;5547;42.672;23.230;2023-08-07T10:12:15;1.73;;;1.30;;
10987;SDS011;5547;42.672;23.230;2023-08-07T10:15:16;1.40;;;1.30;;
10987;SDS011;5547;42.672;23.230;2023-08-07T10:18:17;1.92;;;1.33;;
10987;SDS011;5547;42.672;23.230;2023-08-07T10:21:18;2.15;;;1.25;;
10987;SDS011;5547;42.672;23.230;2023-08-07T10:24:20;1.30;;;1.10;;
10987;SDS011;5547;42.672;23.230;2023-08-07T10:27:23;1.55;;;1.20;;
10987;SDS011;5547;42.672;23.230;2023-08-07T10:30:26;1.90;;;1.40;;
10987;SDS011;5547;42.672;23.230;2023-08-07T10:33:27;1.73;;;1.10;;
10987;SDS011;5547;42.672;23.230;2023-08-07T10:36:35;2.72;;;1.30;;
10987;SDS011;5547;42.672;23.230;2023-08-07T10:39:36;2.63;;;1.30;;
10987;SDS011;5547;42.672;23.230;2023-08-07T10:46:12;1.50;;;1.30;;
10987;SDS011;5547;42.672;23.230;2023-08-07T10:52:31;2.47;;;1.30;;
10987;SDS011;5547;42.672;23.230;2023-08-07T10:55:44;2.00;;;1.10;;
10987;SDS011;5547;42.672;23.230;2023-08-07T10:58:51;1.40;;;1.10;;
10987;SDS011;5547;42.672;23.230;2023-08-07T11:01:53;1.90;;;1.20;;
10987;SDS011;5547;42.672;23.230;2023-08-07T11:04:55;1.77;;;1.48;;
10987;SDS011;5547;42.672;23.230;2023-08-07T11:07:56;2.25;;;1.40;;
10987;SDS011;5547;42.672;23.230;2023-08-07T11:10:58;2.28;;;1.58;;
10987;SDS011;5547;42.672;23.230;2023-08-07T11:14:04;1.87;;;1.23;;
10987;SDS011;5547;42.672;23.230;2023-08-07T11:17:04;2.35;;;1.33;;
10987;SDS011;5547;42.672;23.230;2023-08-07T11:20:06;2.83;;;1.27;;
10987;SDS011;5547;42.672;23.230;2023-08-07T11:23:07;2.30;;;1.27;;
10987;SDS011;5547;42.672;23.230;2023-08-07T11:26:07;2.20;;;1.20;;
10987;SDS011;5547;42.672;23.230;2023-08-07T11:29:09;1.98;;;1.20;;
10987;SDS011;5547;42.672;23.230;2023-08-07T11:32:09;1.87;;;1.30;;
10987;SDS011;5547;42.672;23.230;2023-08-07T11:35:10;1.67;;;1.30;;
10987;SDS011;5547;42.672;23.230;2023-08-07T11:38:11;1.95;;;1.20;;
10987;SDS011;5547;42.672;23.230;2023-08-07T11:41:13;1.95;;;1.50;;
10987;SDS011;5547;42.672;23.230;2023-08-07T11:44:14;1.52;;;1.20;;
10987;SDS011;5547;42.672;23.230;2023-08-07T11:47:15;1.47;;;1.10;;
10987;SDS011;5547;42.672;23.230;2023-08-07T11:50:16;1.60;;;1.20;;
10987;SDS011;5547;42.672;23.230;2023-08-07T11:53:17;2.30;;;1.40;;
10987;SDS011;5547;42.672;23.230;2023-08-07T11:56:19;1.90;;;1.30;;
10987;SDS011;5547;42.672;23.230;2023-08-07T11:59:19;1.75;;;1.35;;
10987;SDS011;5547;42.672;23.230;2023-08-07T12:02:29;2.37;;;1.50;;
10987;SDS011;5547;42.672;23.230;2023-08-07T12:05:37;1.80;;;1.38;;
10987;SDS011;5547;42.672;23.230;2023-08-07T12:08:41;2.30;;;1.60;;
10987;SDS011;5547;42.672;23.230;2023-08-07T12:11:42;2.38;;;1.20;;
10987;SDS011;5547;42.672;23.230;2023-08-07T12:14:42;1.80;;;1.50;;
10987;SDS011;5547;42.672;23.230;2023-08-07T12:17:42;3.90;;;2.70;;
10987;SDS011;5547;42.672;23.230;2023-08-07T12:20:43;2.90;;;1.93;;
10987;SDS011;5547;42.672;23.230;2023-08-07T12:23:43;2.73;;;1.70;;
10987;SDS011;5547;42.672;23.230;2023-08-07T12:26:44;2.70;;;1.80;;
10987;SDS011;5547;42.672;23.230;2023-08-07T12:29:44;3.10;;;2.07;;
10987;SDS011;5547;42.672;23.230;2023-08-07T12:32:45;2.80;;;2.00;;
10987;SDS011;5547;42.672;23.230;2023-08-07T12:35:45;2.20;;;1.50;;
10987;SDS011;5547;42.672;23.230;2023-08-07T12:38:46;1.90;;;1.30;;
10987;SDS011;5547;42.672;23.230;2023-08-07T12:41:46;1.83;;;1.40;;
10987;SDS011;5547;42.672;23.230;2023-08-07T12:44:48;2.20;;;1.50;;
10987;SDS011;5547;42.672;23.230;2023-08-07T12:47:49;2.63;;;1.50;;
10987;SDS011;5547;42.672;23.230;2023-08-07T12:50:49;1.90;;;1.52;;
10987;SDS011;5547;42.672;23.230;2023-08-07T12:53:49;2.13;;;1.50;;
10987;SDS011;5547;42.672;23.230;2023-08-07T12:56:51;2.40;;;1.52;;
10987;SDS011;5547;42.672;23.230;2023-08-07T12:59:52;2.30;;;1.50;;
10987;SDS011;5547;42.672;23.230;2023-08-07T13:02:53;1.77;;;1.53;;
10987;SDS011;5547;42.672;23.230;2023-08-07T13:05:55;2.47;;;1.70;;
10987;SDS011;5547;42.672;23.230;2023-08-07T13:08:55;2.20;;;1.50;;
10987;SDS011;5547;42.672;23.230;2023-08-07T13:11:56;2.05;;;1.50;;
10987;SDS011;5547;42.672;23.230;2023-08-07T13:14:56;2.23;;;1.60;;
10987;SDS011;5547;42.672;23.230;2023-08-07T13:17:56;2.77;;;1.30;;
10987;SDS011;5547;42.672;23.230;2023-08-07T13:20:57;2.23;;;1.30;;
10987;SDS011;5547;42.672;23.230;2023-08-07T13:23:58;2.30;;;1.67;;
10987;SDS011;5547;42.672;23.230;2023-08-07T13:26:58;3.00;;;1.43;;
10987;SDS011;5547;42.672;23.230;2023-08-07T13:29:59;1.50;;;1.20;;
10987;SDS011;5547;42.672;23.230;2023-08-07T13:33:00;2.00;;;1.40;;
10987;SDS011;5547;42.672;23.230;2023-08-07T13:36:00;3.27;;;1.50;;
10987;SDS011;5547;42.672;23.230;2023-08-07T13:39:00;2.10;;;1.33;;
10987;SDS011;5547;42.672;23.230;2023-08-07T13:42:01;3.03;;;1.50;;
10987;SDS011;5547;42.672;23.230;2023-08-07T13:45:02;2.45;;;1.45;;
10987;SDS011;5547;42.672;23.230;2023-08-07T13:48:03;3.33;;;1.70;;
10987;SDS011;5547;42.672;23.230;2023-08-07T13:51:06;2.70;;;1.30;;
10987;SDS011;5547;42.672;23.230;2023-08-07T13:54:08;2.65;;;1.48;;
10987;SDS011;5547;42.672;23.230;2023-08-07T13:57:08;2.00;;;1.50;;
10987;SDS011;5547;42.672;23.230;2023-08-07T14:00:09;2.20;;;1.37;;
10987;SDS011;5547;42.672;23.230;2023-08-07T14:03:11;1.83;;;1.48;;
10987;SDS011;5547;42.672;23.230;2023-08-07T14:06:12;2.75;;;1.60;;
10987;SDS011;5547;42.672;23.230;2023-08-07T14:09:12;1.80;;;1.50;;
10987;SDS011;5547;42.672;23.230;2023-08-07T14:12:14;2.42;;;1.50;;
10987;SDS011;5547;42.672;23.230;2023-08-07T14:15:14;2.30;;;1.60;;
10987;SDS011;5547;42.672;23.230;2023-08-07T14:18:14;3.40;;;1.80;;
10987;SDS011;5547;42.672;23.230;2023-08-07T14:21:15;2.00;;;1.60;;
10987;SDS011;5547;42.672;23.230;2023-08-07T14:24:16;3.03;;;1.63;;
10987;SDS011;5547;42.672;23.230;2023-08-07T14:27:17;3.60;;;1.77;;
10987;SDS011;5547;42.672;23.230;2023-08-07T14:30:17;2.13;;;1.40;;
10987;SDS011;5547;42.672;23.230;2023-08-07T14:33:17;1.70;;;1.27;;
10987;SDS011;5547;42.672;23.230;2023-08-07T14:36:18;1.67;;;1.40;;
10987;SDS011;5547;42.672;23.230;2023-08-07T14:39:18;2.10;;;1.33;;
10987;SDS011;5547;42.672;23.230;2023-08-07T14:42:19;2.17;;;1.43;;
10987;SDS011;5547;42.672;23.230;2023-08-07T14:45:20;2.40;;;1.30;;
10987;SDS011;5547;42.672;23.230;2023-08-07T14:48:20;2.30;;;1.33;;
10987;SDS011;5547;42.672;23.230;2023-08-07T14:51:21;2.10;;;1.40;;
10987;SDS011;5547;42.672;23.230;2023-08-07T14:54:21;2.35;;;1.25;;
10987;SDS011;5547;42.672;23.230;2023-08-07T14:57:23;2.30;;;1.38;;
10987;SDS011;5547;42.672;23.230;2023-08-07T15:00:24;2.00;;;1.30;;
10987;SDS011;5547;42.672;23.230;2023-08-07T15:03:24;2.63;;;1.58;;
10987;SDS011;5547;42.672;23.230;2023-08-07T15:06:25;1.70;;;1.20;;
10987;SDS011;5547;42.672;23.230;2023-08-07T15:09:25;2.60;;;1.50;;
10987;SDS011;5547;42.672;23.230;2023-08-07T15:12:25;2.00;;;1.10;;
10987;SDS011;5547;42.672;23.230;2023-08-07T15:15:26;2.67;;;1.50;;
10987;SDS011;5547;42.672;23.230;2023-08-07T15:18:26;2.40;;;1.33;;
10987;SDS011;5547;42.672;23.230;2023-08-07T15:21:27;3.13;;;1.40;;
10987;SDS011;5547;42.672;23.230;2023-08-07T15:24:27;2.92;;;1.50;;
10987;SDS011;5547;42.672;23.230;2023-08-07T15:27:28;2.92;;;1.52;;
10987;SDS011;5547;42.672;23.230;2023-08-07T15:30:28;2.43;;;1.43;;
10987;SDS011;5547;42.672;23.230;2023-08-07T15:33:30;2.43;;;1.40;;
10987;SDS011;5547;42.672;23.230;2023-08-07T15:36:30;1.88;;;1.40;;
10987;SDS011;5547;42.672;23.230;2023-08-07T15:39:31;2.30;;;1.60;;
10987;SDS011;5547;42.672;23.230;2023-08-07T15:42:31;2.03;;;1.43;;
10987;SDS011;5547;42.672;23.230;2023-08-07T15:45:32;2.10;;;1.40;;
10987;SDS011;5547;42.672;23.230;2023-08-07T15:48:32;2.10;;;1.90;;
10987;SDS011;5547;42.672;23.230;2023-08-07T15:51:33;2.80;;;1.83;;
10987;SDS011;5547;42.672;23.230;2023-08-07T15:54:33;2.10;;;1.60;;
10987;SDS011;5547;42.672;23.230;2023-08-07T15:57:33;2.05;;;1.45;;
10987;SDS011;5547;42.672;23.230;2023-08-07T16:00:34;2.20;;;1.30;;
10987;SDS011;5547;42.672;23.230;2023-08-07T16:03:35;2.23;;;1.50;;
10987;SDS011;5547;42.672;23.230;2023-08-07T16:06:41;3.67;;;1.60;;
10987;SDS011;5547;42.672;23.230;2023-08-07T16:09:41;3.83;;;1.60;;
10987;SDS011;5547;42.672;23.230;2023-08-07T16:12:42;3.30;;;1.40;;
10987;SDS011;5547;42.672;23.230;2023-08-07T16:15:42;2.30;;;1.50;;
10987;SDS011;5547;42.672;23.230;2023-08-07T16:18:43;3.53;;;1.50;;
10987;SDS011;5547;42.672;23.230;2023-08-07T16:21:43;2.60;;;1.40;;
10987;SDS011;5547;42.672;23.230;2023-08-07T16:24:43;2.27;;;1.50;;
10987;SDS011;5547;42.672;23.230;2023-08-07T16:27:44;2.70;;;1.47;;
10987;SDS011;5547;42.672;23.230;2023-08-07T16:30:45;3.10;;;1.60;;
10987;SDS011;5547;42.672;23.230;2023-08-07T16:33:45;1.97;;;1.50;;
10987;SDS011;5547;42.672;23.230;2023-08-07T16:36:46;3.80;;;1.70;;
10987;SDS011;5547;42.672;23.230;2023-08-07T16:39:46;2.90;;;1.52;;
10987;SDS011;5547;42.672;23.230;2023-08-07T16:42:47;3.03;;;1.80;;
10987;SDS011;5547;42.672;23.230;2023-08-07T16:45:47;1.77;;;1.37;;
10987;SDS011;5547;42.672;23.230;2023-08-07T16:48:48;2.30;;;1.60;;
10987;SDS011;5547;42.672;23.230;2023-08-07T16:51:48;2.37;;;1.57;;
10987;SDS011;5547;42.672;23.230;2023-08-07T16:54:48;2.67;;;1.70;;
10987;SDS011;5547;42.672;23.230;2023-08-07T16:57:53;2.25;;;1.75;;
10987;SDS011;5547;42.672;23.230;2023-08-07T17:00:53;2.47;;;1.60;;
10987;SDS011;5547;42.672;23.230;2023-08-07T17:03:53;2.63;;;1.80;;
10987;SDS011;5547;42.672;23.230;2023-08-07T17:06:54;2.80;;;1.90;;
10987;SDS011;5547;42.672;23.230;2023-08-07T17:09:54;2.40;;;1.73;;
10987;SDS011;5547;42.672;23.230;2023-08-07T17:12:55;3.80;;;1.70;;
10987;SDS011;5547;42.672;23.230;2023-08-07T17:15:56;4.60;;;1.98;;
10987;SDS011;5547;42.672;23.230;2023-08-07T17:18:57;2.33;;;1.80;;
10987;SDS011;5547;42.672;23.230;2023-08-07T17:21:59;2.92;;;1.88;;
10987;SDS011;5547;42.672;23.230;2023-08-07T17:25:00;2.07;;;1.60;;
10987;SDS011;5547;42.672;23.230;2023-08-07T17:28:00;2.83;;;1.73;;
10987;SDS011;5547;42.672;23.230;2023-08-07T17:31:01;3.53;;;1.90;;
10987;SDS011;5547;42.672;23.230;2023-08-07T17:34:01;2.85;;;1.90;;
10987;SDS011;5547;42.672;23.230;2023-08-07T17:37:03;3.35;;;1.77;;
10987;SDS011;5547;42.672;23.230;2023-08-07T17:40:03;3.97;;;1.80;;
10987;SDS011;5547;42.672;23.230;2023-08-07T17:43:05;4.70;;;2.20;;
10987;SDS011;5547;42.672;23.230;2023-08-07T17:46:05;3.60;;;2.30;;
10987;SDS011;5547;42.672;23.230;2023-08-07T17:49:05;2.53;;;1.93;;
10987;SDS011;5547;42.672;23.230;2023-08-07T17:52:06;2.25;;;1.67;;
10987;SDS011;5547;42.672;23.230;2023-08-07T17:55:08;3.47;;;1.80;;
10987;SDS011;5547;42.672;23.230;2023-08-07T17:58:11;3.17;;;1.90;;
10987;SDS011;5547;42.672;23.230;2023-08-07T18:01:12;2.85;;;1.67;;
10987;SDS011;5547;42.672;23.230;2023-08-07T18:04:12;3.20;;;1.70;;
10987;SDS011;5547;42.672;23.230;2023-08-07T18:07:12;2.07;;;1.40;;
10987;SDS011;5547;42.672;23.230;2023-08-07T18:10:14;1.83;;;1.35;;
10987;SDS011;5547;42.672;23.230;2023-08-07T18:13:15;2.73;;;1.40;;
10987;SDS011;5547;42.672;23.230;2023-08-07T18:16:15;2.20;;;1.40;;
10987;SDS011;5547;42.672;23.230;2023-08-07T18:19:16;2.30;;;1.45;;
10987;SDS011;5547;42.672;23.230;2023-08-07T18:22:17;4.10;;;1.93;;
10987;SDS011;5547;42.672;23.230;2023-08-07T18:25:18;3.35;;;1.95;;
10987;SDS011;5547;42.672;23.230;2023-08-07T18:28:18;2.80;;;2.07;;
10987;SDS011;5547;42.672;23.230;2023-08-07T18:31:19;2.00;;;1.33;;